Time;durP1;ratioP1;P1;durP2;ratioP2;P2;SDS_P1;SDS_P2;PMS_P1;PMS_P2;Temp;Humidity;BMP_temperature;BMP_pressure;BME280_temperature;BME280_humidity;BME280_pressure;Samples;Min_cycle;Max_cycle;Signal;HPM_P1;HPM_P2
2023/08/11 00:00:08;;;;;;;7.30;4.00;;;;;;;14.44;87.25;101077.63;212770;1294;141526;-81
2023/08/11 00:05:09;;;;;;;6.70;2.90;;;;;;;14.33;87.38;101078.52;213233;1293;106730;-80
2023/08/11 00:10:09;;;;;;;8.30;3.00;;;;;;;14.24;86.95;101074.20;212783;1300;140675;-81
2023/08/11 00:15:12;;;;;;;7.20;2.70;;;;;;;14.16;87.07;101073.88;213268;1294;138493;-81
2023/08/11 00:20:12;;;;;;;9.70;2.60;;;;;;;14.12;86.90;101067.67;212898;1294;141274;-81
2023/08/11 00:25:13;;;;;;;7.60;2.80;;;;;;;14.06;87.97;101066.84;214166;1298;140946;-81
2023/08/11 00:30:14;;;;;;;6.60;2.70;;;;;;;13.93;88.07;101064.52;213531;1297;141111;-81
2023/08/11 00:35:15;;;;;;;6.70;2.80;;;;;;;13.81;88.33;101068.88;214223;1298;106886;-81
2023/08/11 00:40:16;;;;;;;11.90;3.20;;;;;;;13.74;88.81;101072.52;213570;1296;141663;-81
2023/08/11 00:45:17;;;;;;;8.00;2.70;;;;;;;13.64;88.83;101068.80;214132;1293;138628;-81
2023/08/11 00:50:17;;;;;;;9.50;2.40;;;;;;;13.55;89.69;101070.38;213637;1294;140113;-81
2023/08/11 00:55:18;;;;;;;10.10;3.00;;;;;;;13.43;90.18;101064.27;214286;1296;140920;-81
2023/08/11 01:00:19;;;;;;;8.50;2.80;;;;;;;13.34;90.63;101069.85;213536;1294;141004;-81
2023/08/11 01:05:20;;;;;;;6.50;2.60;;;;;;;13.21;91.27;101072.09;214324;1293;107815;-81
2023/08/11 01:10:28;;;;;;;8.60;3.30;;;;;;;13.11;90.86;101068.59;213876;1293;141100;-82
2023/08/11 01:15:43;;;;;;;10.90;3.10;;;;;;;13.03;91.90;101067.00;214180;1299;140972;-81
2023/08/11 01:20:45;;;;;;;8.00;3.30;;;;;;;12.90;91.97;101063.19;213620;1298;141402;-81
2023/08/11 01:25:47;;;;;;;5.60;2.40;;;;;;;12.81;92.39;101062.75;214090;1296;138792;-81
2023/08/11 01:30:48;;;;;;;6.40;2.60;;;;;;;12.72;92.50;101064.70;213748;1294;143245;-82
2023/08/11 01:35:48;;;;;;;7.60;2.40;;;;;;;12.63;92.54;101062.06;214418;1293;139082;-81
2023/08/11 01:40:49;;;;;;;7.40;2.60;;;;;;;12.55;93.26;101063.46;214525;1298;140025;-81
2023/08/11 01:45:50;;;;;;;7.20;2.70;;;;;;;12.47;93.05;101067.53;214832;1297;138488;-81
2023/08/11 01:50:50;;;;;;;7.60;2.70;;;;;;;12.39;93.39;101067.18;214437;1294;141859;-81
2023/08/11 01:55:52;;;;;;;7.20;2.40;;;;;;;12.31;93.80;101065.17;214914;1299;138539;-81
2023/08/11 02:00:52;;;;;;;10.80;2.50;;;;;;;12.23;93.85;101065.30;214398;1296;141629;-81
2023/08/11 02:05:55;;;;;;;8.20;2.20;;;;;;;12.15;94.24;101068.48;215020;1295;139155;-80
2023/08/11 02:10:55;;;;;;;9.10;2.60;;;;;;;12.07;94.52;101064.59;213975;1296;140497;-81
2023/08/11 02:15:56;;;;;;;6.80;2.40;;;;;;;12.01;94.99;101062.21;214060;1298;140406;-81
2023/08/11 02:20:56;;;;;;;9.00;2.40;;;;;;;11.95;95.57;101060.45;213632;1294;141973;-81
2023/08/11 02:25:57;;;;;;;4.10;2.20;;;;;;;11.88;96.05;101063.34;214135;1294;139126;-81
2023/08/11 02:30:57;;;;;;;12.20;3.00;;;;;;;11.81;96.51;101060.55;213555;1296;140529;-80
2023/08/11 02:35:57;;;;;;;9.00;2.90;;;;;;;11.77;96.49;101060.55;213980;1295;139419;-81
2023/08/11 02:40:58;;;;;;;5.70;2.40;;;;;;;11.74;96.94;101065.87;213584;1295;141435;-81
2023/08/11 02:45:58;;;;;;;3.80;2.30;;;;;;;11.67;97.96;101068.11;214174;1294;138405;-81
2023/08/11 02:51:00;;;;;;;6.10;2.90;;;;;;;11.60;98.38;101069.17;213711;1294;141468;-81
2023/08/11 02:56:05;;;;;;;4.70;2.30;;;;;;;11.55;98.50;101070.39;214152;1295;138739;-80
2023/08/11 03:01:05;;;;;;;7.20;2.10;;;;;;;11.49;98.49;101068.31;213673;1294;140901;-81
2023/08/11 03:06:06;;;;;;;5.90;2.10;;;;;;;11.45;98.70;101069.67;214147;1293;139038;-81
2023/08/11 03:11:06;;;;;;;5.40;2.10;;;;;;;11.43;99.25;101068.55;213679;1296;140993;-81
2023/08/11 03:16:07;;;;;;;9.40;2.20;;;;;;;11.40;99.70;101069.98;214078;1296;139493;-82
2023/08/11 03:21:07;;;;;;;9.40;2.70;;;;;;;11.36;99.47;101069.81;213624;1294;140274;-81
2023/08/11 03:26:09;;;;;;;6.80;3.20;;;;;;;11.32;99.72;101069.22;214138;1293;139149;-81
2023/08/11 03:31:10;;;;;;;10.50;3.10;;;;;;;11.28;100.00;101071.71;213725;1293;141700;-82
2023/08/11 03:36:11;;;;;;;5.50;2.50;;;;;;;11.23;99.98;101073.99;214268;1294;139012;-81
2023/08/11 03:41:12;;;;;;;6.60;3.00;;;;;;;11.19;100.00;101075.65;213794;1293;140928;-81
2023/08/11 03:46:12;;;;;;;7.70;2.50;;;;;;;11.17;99.93;101075.61;214053;1296;139695;-81
2023/08/11 03:51:12;;;;;;;8.30;3.80;;;;;;;11.14;100.00;101073.26;213477;1299;140669;-81
2023/08/11 03:56:13;;;;;;;13.50;3.30;;;;;;;11.09;100.00;101071.69;214118;1293;140193;-81
2023/08/11 04:01:14;;;;;;;7.50;2.60;;;;;;;11.07;100.00;101077.70;213487;1297;140911;-81
2023/08/11 04:06:15;;;;;;;7.00;2.80;;;;;;;11.04;100.00;101080.70;213815;1296;138708;-81
2023/08/11 04:11:16;;;;;;;7.70;2.40;;;;;;;11.03;100.00;101081.39;213534;1294;142202;-81
2023/08/11 04:16:16;;;;;;;11.30;2.80;;;;;;;11.02;100.00;101082.86;213980;1294;138745;-81
2023/08/11 04:21:17;;;;;;;5.20;2.40;;;;;;;11.03;100.00;101080.23;213653;1294;141202;-81
2023/08/11 04:26:17;;;;;;;9.60;3.40;;;;;;;11.06;100.00;101081.06;214098;1296;138787;-81
2023/08/11 04:31:18;;;;;;;6.70;2.70;;;;;;;11.09;100.00;101085.70;213632;1296;140468;-81
2023/08/11 04:36:18;;;;;;;7.10;3.10;;;;;;;11.13;100.00;101089.14;214172;1296;138832;-80
2023/08/11 04:41:19;;;;;;;8.10;3.00;;;;;;;11.17;100.00;101093.70;213707;1298;140866;-82
2023/08/11 04:46:19;;;;;;;4.80;2.60;;;;;;;11.23;100.00;101095.08;214081;1297;138617;-81
2023/08/11 04:51:19;;;;;;;8.50;3.40;;;;;;;11.28;100.00;101096.69;213699;1296;143165;-81
2023/08/11 04:56:20;;;;;;;5.80;2.50;;;;;;;11.33;100.00;101098.05;214099;1297;139070;-81
2023/08/11 05:01:21;;;;;;;6.60;3.10;;;;;;;11.38;100.00;101103.87;213663;1297;141694;-81
2023/08/11 05:06:22;;;;;;;8.00;3.30;;;;;;;11.47;100.00;101103.98;215197;1296;138902;-81
2023/08/11 05:11:22;;;;;;;6.20;3.00;;;;;;;11.56;100.00;101101.91;213830;1293;140841;-81
2023/08/11 05:16:24;;;;;;;12.40;4.60;;;;;;;11.69;100.00;101105.73;214202;1298;140677;-81
2023/08/11 05:21:24;;;;;;;13.10;5.20;;;;;;;11.86;100.00;101101.45;213924;1294;141798;-82
2023/08/11 05:26:25;;;;;;;14.50;4.90;;;;;;;12.11;100.00;101103.36;214443;1298;139000;-81
2023/08/11 05:31:26;;;;;;;15.50;6.10;;;;;;;12.41;100.00;101103.98;213895;1293;141435;-81
2023/08/11 05:36:27;;;;;;;13.00;6.80;;;;;;;12.76;100.00;101099.30;214456;1297;139075;-84
2023/08/11 05:41:28;;;;;;;13.70;6.00;;;;;;;13.17;100.00;101101.17;214269;1293;142929;-84
2023/08/11 05:46:30;;;;;;;14.70;6.40;;;;;;;13.72;100.00;101101.04;214639;1293;96558;-84
2023/08/11 05:51:31;;;;;;;12.20;5.00;;;;;;;14.34;100.00;101105.65;213787;1293;140503;-83
2023/08/11 05:56:31;;;;;;;14.90;5.40;;;;;;;14.97;100.00;101106.95;214731;1297;138960;-83
2023/08/11 06:01:32;;;;;;;13.60;5.30;;;;;;;15.65;99.73;101104.61;214390;1296;141624;-84
2023/08/11 06:06:32;;;;;;;13.10;5.30;;;;;;;16.36;98.00;101104.86;215708;1299;138786;-84
2023/08/11 06:11:33;;;;;;;28.70;6.60;;;;;;;17.07;95.78;101107.84;215128;1294;141873;-85
2023/08/11 06:16:34;;;;;;;20.00;5.10;;;;;;;17.77;92.57;101112.21;215812;1294;96363;-85
2023/08/11 06:21:35;;;;;;;18.30;5.10;;;;;;;18.36;90.56;101122.23;215094;1294;140625;-84
2023/08/11 06:26:35;;;;;;;15.60;4.40;;;;;;;19.06;87.77;101128.97;214978;1297;139497;-85
2023/08/11 06:31:36;;;;;;;12.10;3.70;;;;;;;19.55;85.13;101129.45;214636;1298;140760;-85
2023/08/11 06:36:36;;;;;;;12.60;3.00;;;;;;;19.94;85.21;101130.52;215119;1297;138931;-84
2023/08/11 06:41:37;;;;;;;19.50;4.80;;;;;;;20.22;83.93;101132.48;213841;1294;142237;-83
2023/08/11 06:46:37;;;;;;;17.00;4.40;;;;;;;20.39;84.52;101136.34;214327;1298;96611;-84
2023/08/11 06:51:38;;;;;;;18.70;5.10;;;;;;;20.46;81.27;101140.06;213843;1293;141638;-83
2023/08/11 06:56:38;;;;;;;18.60;4.00;;;;;;;20.45;79.03;101143.66;214185;1293;138989;-84
2023/08/11 07:01:38;;;;;;;14.10;3.00;;;;;;;20.53;77.67;101149.83;213903;1293;142404;-84
2023/08/11 07:06:39;;;;;;;8.40;2.80;;;;;;;20.60;75.04;101155.63;214482;1293;138662;-84
2023/08/11 07:11:39;;;;;;;13.00;3.10;;;;;;;20.80;73.93;101158.52;213887;1293;141611;-84
2023/08/11 07:16:39;;;;;;;23.10;7.00;;;;;;;20.99;72.55;101162.65;214685;1295;96608;-85
2023/08/11 07:21:40;;;;;;;46.70;21.10;;;;;;;21.20;73.52;101163.75;213973;1294;140259;-85
2023/08/11 07:26:41;;;;;;;11.00;3.10;;;;;;;21.36;70.79;101162.21;214640;1297;138526;-85
2023/08/11 07:31:43;;;;;;;9.50;2.90;;;;;;;21.61;71.77;101168.23;214060;1295;140094;-87
2023/08/11 07:36:44;;;;;;;7.60;2.80;;;;;;;21.87;69.57;101172.29;214499;1298;139216;-86
2023/08/11 07:41:46;;;;;;;6.80;2.20;;;;;;;22.09;68.73;101174.65;213754;1295;139626;-87
2023/08/11 07:46:47;;;;;;;7.50;2.30;;;;;;;22.28;66.15;101175.95;214626;1294;96718;-88
2023/08/11 07:51:49;;;;;;;11.10;2.60;;;;;;;22.35;65.64;101178.00;213847;1294;138442;-87
2023/08/11 07:56:49;;;;;;;7.20;2.40;;;;;;;22.48;65.10;101172.01;214243;1298;138906;-87
2023/08/11 08:01:52;;;;;;;9.20;2.10;;;;;;;22.72;64.16;101172.66;213739;1296;140978;-85
2023/08/11 08:06:55;;;;;;;8.20;2.40;;;;;;;22.80;63.42;101171.90;214558;1295;138370;-86
2023/08/11 08:11:55;;;;;;;6.50;1.90;;;;;;;22.85;66.70;101170.14;213814;1298;140445;-85
2023/08/11 08:16:58;;;;;;;6.10;2.10;;;;;;;23.08;64.76;101169.56;214416;1296;97050;-84
2023/08/11 08:21:58;;;;;;;5.50;1.60;;;;;;;23.23;63.22;101178.13;213923;1296;140239;-85
2023/08/11 08:26:59;;;;;;;4.80;1.80;;;;;;;23.51;62.06;101178.68;214147;1296;138298;-87
2023/08/11 08:31:59;;;;;;;5.00;1.80;;;;;;;24.05;58.11;101179.36;213752;1297;141385;-86
2023/08/11 08:37:00;;;;;;;6.00;2.10;;;;;;;24.53;59.63;101183.86;214216;1297;137797;-84
2023/08/11 08:42:03;;;;;;;4.60;1.70;;;;;;;25.30;58.88;101184.48;213660;1294;139635;-84
2023/08/11 08:47:05;;;;;;;7.50;2.20;;;;;;;26.33;59.61;101183.21;214718;1296;95344;-85
2023/08/11 08:52:06;;;;;;;9.10;2.20;;;;;;;27.26;56.13;101179.64;213821;1294;139761;-85
2023/08/11 08:57:09;;;;;;;5.50;1.70;;;;;;;27.73;51.20;101185.84;214289;1295;138218;-86
2023/08/11 09:02:11;;;;;;;5.30;1.70;;;;;;;27.74;50.82;101180.97;213699;1298;139610;-85
2023/08/11 09:07:12;;;;;;;5.70;2.20;;;;;;;28.00;51.81;101180.67;215183;1294;138420;-85
2023/08/11 09:12:13;;;;;;;4.70;1.80;;;;;;;28.45;48.60;101180.23;214518;1295;140680;-87
2023/08/11 09:17:14;;;;;;;6.90;1.90;;;;;;;28.86;47.17;101182.23;214704;1293;96559;-86
2023/08/11 09:22:15;;;;;;;8.50;1.80;;;;;;;28.80;45.31;101181.97;214248;1295;140419;-86
2023/08/11 09:27:15;;;;;;;4.30;1.90;;;;;;;28.85;46.73;101184.67;215017;1293;138123;-85
2023/08/11 09:32:16;;;;;;;7.30;1.80;;;;;;;29.13;47.71;101182.77;214290;1294;140812;-85
2023/08/11 09:37:16;;;;;;;6.00;1.70;;;;;;;29.22;46.82;101180.23;214420;1297;138030;-86
2023/08/11 09:42:18;;;;;;;4.50;2.00;;;;;;;29.03;44.55;101181.87;213697;1295;140001;-86
2023/08/11 09:47:19;;;;;;;8.20;2.10;;;;;;;28.66;43.94;101181.17;214218;1298;97609;-86
2023/08/11 09:52:20;;;;;;;3.60;1.80;;;;;;;28.32;44.14;101177.62;213761;1299;140269;-85
2023/08/11 09:57:22;;;;;;;5.80;1.80;;;;;;;28.25;45.19;101172.88;214056;1297;299258;-86
2023/08/11 10:02:28;;;;;;;6.80;2.10;;;;;;;28.42;44.14;101171.88;213661;1298;139995;-86
2023/08/11 10:07:37;;;;;;;8.10;2.20;;;;;;;28.37;42.47;101172.38;215604;1295;138000;-87
2023/08/11 10:12:40;;;;;;;8.00;2.30;;;;;;;28.35;43.37;101168.17;213981;1296;140622;-85
2023/08/11 10:17:41;;;;;;;6.70;2.00;;;;;;;28.90;45.02;101165.80;215374;1293;137875;-85
2023/08/11 10:22:42;;;;;;;4.90;1.80;;;;;;;29.44;43.90;101162.99;213727;1294;141640;-88
2023/08/11 10:27:43;;;;;;;3.90;1.80;;;;;;;29.56;43.25;101166.05;214129;1294;137748;-82
2023/08/11 10:32:43;;;;;;;9.90;1.90;;;;;;;29.69;43.01;101168.46;213537;1295;140069;-85
2023/08/11 10:37:44;;;;;;;4.90;1.60;;;;;;;29.62;44.58;101175.52;214249;1294;137869;-85
2023/08/11 10:42:44;;;;;;;6.10;1.70;;;;;;;29.58;43.89;101178.42;213722;1298;140746;-84
2023/08/11 10:47:54;;;;;;;4.00;1.70;;;;;;;29.31;42.11;101173.90;214088;1295;137830;-85
2023/08/11 10:53:19;;;;;;;5.20;1.60;;;;;;;29.04;41.56;101173.99;213750;1298;140634;-85
2023/08/11 10:58:22;;;;;;;8.70;1.80;;;;;;;28.85;40.74;101169.01;214008;1294;137702;-86
2023/08/11 11:03:23;;;;;;;4.30;1.60;;;;;;;28.25;40.58;101168.10;213438;1298;140810;-86
2023/08/11 11:08:23;;;;;;;7.10;2.00;;;;;;;28.11;42.82;101165.91;214049;1297;138476;-85
2023/08/11 11:13:24;;;;;;;6.50;2.30;;;;;;;28.28;43.76;101166.10;213528;1298;140898;-84
2023/08/11 11:18:27;;;;;;;6.20;1.70;;;;;;;28.29;42.02;101162.55;213980;1298;139012;-85
2023/08/11 11:23:27;;;;;;;5.20;1.70;;;;;;;28.34;43.67;101166.76;213659;1294;141114;-85
2023/08/11 11:28:27;;;;;;;7.00;2.20;;;;;;;28.43;42.02;101166.17;214200;1299;96705;-85
2023/08/11 11:33:28;;;;;;;6.70;2.00;;;;;;;28.13;43.30;101166.11;213618;1298;139871;-85
2023/08/11 11:38:29;;;;;;;3.30;1.60;;;;;;;28.15;44.09;101167.81;214150;1297;137909;-85
2023/08/11 11:43:29;;;;;;;7.00;2.40;;;;;;;28.25;45.25;101172.50;213694;1298;140201;-85
2023/08/11 11:48:30;;;;;;;4.10;1.90;;;;;;;28.43;42.54;101173.46;213941;1300;137890;-85
2023/08/11 11:53:30;;;;;;;5.70;1.90;;;;;;;28.54;41.27;101167.57;213694;1298;141948;-87
2023/08/11 11:58:33;;;;;;;4.80;1.90;;;;;;;28.50;40.82;101160.95;214095;1296;96627;-87
2023/08/11 12:03:33;;;;;;;7.80;2.60;;;;;;;28.87;42.15;101158.17;214045;1296;141340;-88
2023/08/11 12:08:35;;;;;;;5.80;2.20;;;;;;;29.28;40.98;101151.77;215354;1294;138714;-84
2023/08/11 12:13:38;;;;;;;5.80;1.80;;;;;;;29.45;42.46;101151.26;214361;1298;140477;-84
2023/08/11 12:18:39;;;;;;;6.10;2.10;;;;;;;29.75;40.62;101145.91;214283;1298;139219;-86
2023/08/11 12:23:39;;;;;;;4.70;2.00;;;;;;;29.89;40.67;101139.42;213644;1298;140022;-84
2023/08/11 12:28:40;;;;;;;4.30;1.70;;;;;;;29.76;41.93;101141.17;213919;1298;102231;-85
2023/08/11 12:33:40;;;;;;;5.70;1.60;;;;;;;29.99;42.92;101142.36;213403;1299;140312;-84
2023/08/11 12:38:41;;;;;;;6.40;1.90;;;;;;;29.98;41.56;101143.48;213867;1298;137895;-84
2023/08/11 12:43:41;;;;;;;3.70;1.50;;;;;;;30.08;41.49;101143.91;213470;1299;139940;-85
2023/08/11 12:48:42;;;;;;;6.20;1.90;;;;;;;30.23;40.17;101145.64;213959;1299;137915;-83
2023/08/11 12:53:42;;;;;;;5.40;1.70;;;;;;;29.72;40.38;101147.56;213435;1295;140018;-85
2023/08/11 12:58:43;;;;;;;4.80;1.90;;;;;;;29.96;41.34;101145.16;214075;1295;97971;-86
2023/08/11 13:03:43;;;;;;;5.50;1.80;;;;;;;30.23;40.40;101140.52;213365;1296;139726;-85
2023/08/11 13:08:44;;;;;;;4.40;2.00;;;;;;;30.08;39.15;101146.80;213943;1295;137842;-88
2023/08/11 13:13:45;;;;;;;6.50;2.20;;;;;;;29.69;38.74;101144.01;213310;1298;140406;-87
2023/08/11 13:18:45;;;;;;;4.60;1.90;;;;;;;29.63;40.06;101137.20;214005;1294;138425;-84
2023/08/11 13:23:46;;;;;;;6.10;2.10;;;;;;;29.78;41.34;101133.37;213532;1298;141431;-84
2023/08/11 13:28:46;;;;;;;3.40;1.70;;;;;;;29.85;39.84;101128.00;214044;1298;96578;-84
2023/08/11 13:33:47;;;;;;;7.40;2.40;;;;;;;29.72;38.86;101126.55;213536;1298;140407;-89
2023/08/11 13:38:47;;;;;;;3.70;1.70;;;;;;;29.17;37.27;101127.64;214020;1295;138102;-89
2023/08/11 13:43:48;;;;;;;5.00;2.20;;;;;;;28.78;40.14;101125.73;213718;1295;139651;-88
2023/08/11 13:48:48;;;;;;;5.60;2.10;;;;;;;28.68;39.18;101134.02;213995;1297;138102;-92
2023/08/11 13:53:49;;;;;;;6.10;2.00;;;;;;;28.21;38.43;101130.15;213468;1298;139666;-88
2023/08/11 13:58:50;;;;;;;4.50;2.00;;;;;;;27.89;41.32;101127.15;214120;1297;104272;-88
2023/08/11 14:03:50;;;;;;;4.40;2.10;;;;;;;27.93;42.82;101122.83;213463;1294;140215;-85
2023/08/11 14:08:50;;;;;;;4.90;1.80;;;;;;;27.99;43.97;101109.27;213870;1297;137754;-84
2023/08/11 14:13:51;;;;;;;5.30;1.60;;;;;;;27.94;43.89;101115.23;213930;1298;139320;-85
2023/08/11 14:18:52;;;;;;;4.40;2.00;;;;;;;27.88;41.17;101123.00;214083;1297;138299;-86
2023/08/11 14:23:52;;;;;;;6.10;2.20;;;;;;;27.78;44.13;101116.09;213872;1298;140442;-85
2023/08/11 14:28:53;;;;;;;4.20;2.00;;;;;;;27.86;44.91;101118.55;214418;1296;96659;-84
2023/08/11 14:33:53;;;;;;;5.70;1.70;;;;;;;27.71;43.81;101121.11;213699;1293;140647;-85
2023/08/11 14:38:54;;;;;;;5.70;1.90;;;;;;;27.59;43.76;101125.46;214184;1298;138249;-89
2023/08/11 14:43:55;;;;;;;6.90;1.80;;;;;;;27.55;44.87;101131.33;213845;1298;140394;-88
2023/08/11 14:48:56;;;;;;;7.00;2.40;;;;;;;27.63;43.64;101135.24;214206;1296;138164;-89
2023/08/11 14:53:56;;;;;;;7.50;1.80;;;;;;;27.51;43.36;101133.42;213629;1294;140347;-88
2023/08/11 14:58:57;;;;;;;6.00;2.00;;;;;;;27.44;43.72;101129.05;214292;1297;96660;-86
2023/08/11 15:03:57;;;;;;;5.30;2.30;;;;;;;27.28;44.17;101129.66;213759;1299;137785;-90
2023/08/11 15:08:58;;;;;;;10.00;2.20;;;;;;;27.03;43.02;101131.77;213534;1295;140141;-87
2023/08/11 15:13:58;;;;;;;5.50;2.10;;;;;;;26.93;45.53;101129.88;214252;1297;138193;-88
2023/08/11 15:18:59;;;;;;;5.30;1.80;;;;;;;26.78;43.15;101126.70;213645;1295;141190;-85
2023/08/11 15:23:59;;;;;;;6.40;1.90;;;;;;;26.52;45.78;101115.32;214128;1293;138470;-84
2023/08/11 15:29:00;;;;;;;5.80;2.20;;;;;;;26.38;46.50;101104.88;214091;1298;141421;-89
2023/08/11 15:34:00;;;;;;;7.70;2.10;;;;;;;26.25;46.50;101108.60;213837;1296;138380;-89
2023/08/11 15:39:01;;;;;;;8.50;2.20;;;;;;;26.16;44.40;101103.77;213555;1298;139782;-91
2023/08/11 15:44:01;;;;;;;6.80;2.40;;;;;;;25.79;43.51;101102.20;214048;1298;138032;-90
2023/08/11 15:49:02;;;;;;;9.00;2.60;;;;;;;25.49;43.97;101104.02;213500;1296;141290;-87
2023/08/11 15:54:02;;;;;;;7.10;2.40;;;;;;;25.39;44.90;101101.21;214434;1296;137887;-87
2023/08/11 15:59:05;;;;;;;7.50;1.90;;;;;;;25.30;45.35;101093.69;213913;1294;163576;-88
2023/08/11 16:04:06;;;;;;;6.30;2.10;;;;;;;25.26;47.20;101095.37;214402;1294;139018;-89
2023/08/11 16:09:06;;;;;;;8.30;2.30;;;;;;;25.11;46.39;101093.41;213432;1296;141476;-87
2023/08/11 16:14:07;;;;;;;3.60;1.90;;;;;;;24.94;47.41;101090.77;213451;1294;137940;-87
2023/08/11 16:19:08;;;;;;;10.40;2.40;;;;;;;24.74;47.60;101080.23;212989;1299;140188;-88
2023/08/11 16:24:08;;;;;;;7.40;2.50;;;;;;;24.64;46.90;101081.34;213624;1295;138106;-87
2023/08/11 16:29:09;;;;;;;5.30;2.20;;;;;;;24.46;47.13;101077.06;213237;1293;139290;-86
2023/08/11 16:34:09;;;;;;;7.50;2.20;;;;;;;24.34;48.66;101081.11;213626;1294;137956;-85
2023/08/11 16:39:10;;;;;;;5.80;1.90;;;;;;;24.22;50.86;101082.65;213054;1297;140017;-85
2023/08/11 16:44:10;;;;;;;6.30;2.40;;;;;;;24.04;49.97;101079.52;213474;1296;138472;-86
2023/08/11 16:49:11;;;;;;;5.90;2.30;;;;;;;23.95;50.22;101082.69;213010;1298;140996;-85
2023/08/11 16:54:11;;;;;;;8.90;2.20;;;;;;;23.78;51.19;101085.72;213613;1296;138139;-86
2023/08/11 16:59:11;;;;;;;5.60;2.00;;;;;;;23.55;52.10;101079.89;212998;1297;140293;-84
2023/08/11 17:04:12;;;;;;;5.90;2.50;;;;;;;23.37;53.43;101075.97;213386;1297;137872;-85
2023/08/11 17:09:12;;;;;;;6.70;2.50;;;;;;;23.19;53.27;101077.07;212886;1298;141795;-84
2023/08/11 17:14:14;;;;;;;6.60;2.30;;;;;;;23.08;54.53;101076.81;213509;1296;137858;-85
2023/08/11 17:19:15;;;;;;;6.90;2.30;;;;;;;22.97;54.50;101078.19;213408;1295;140969;-84
2023/08/11 17:24:17;;;;;;;6.20;2.10;;;;;;;22.80;54.55;101080.77;213673;1298;139021;-85
2023/08/11 17:29:18;;;;;;;5.70;2.10;;;;;;;22.74;55.08;101082.40;212932;1294;140186;-84
2023/08/11 17:34:18;;;;;;;4.60;2.30;;;;;;;22.64;55.66;101081.15;213225;1295;137832;-84
2023/08/11 17:39:20;;;;;;;7.80;2.20;;;;;;;22.53;56.33;101085.15;212723;1293;139693;-84
2023/08/11 17:44:20;;;;;;;6.70;2.30;;;;;;;22.41;57.02;101086.02;213228;1298;139093;-84
2023/08/11 17:49:20;;;;;;;4.20;2.00;;;;;;;22.28;57.99;101085.79;212548;1294;140519;-84
2023/08/11 17:54:21;;;;;;;6.00;2.50;;;;;;;22.13;58.74;101090.45;213745;1293;137936;-84
2023/08/11 17:59:21;;;;;;;7.70;2.30;;;;;;;21.96;59.78;101093.76;213446;1294;140568;-84
2023/08/11 18:04:22;;;;;;;6.40;2.40;;;;;;;21.81;61.13;101092.05;213854;1296;138053;-84
2023/08/11 18:09:22;;;;;;;6.70;2.90;;;;;;;21.62;62.31;101098.23;212673;1297;140940;-85
2023/08/11 18:14:23;;;;;;;7.30;3.00;;;;;;;21.43;63.02;101108.14;213226;1293;137813;-86
2023/08/11 18:19:24;;;;;;;8.20;2.60;;;;;;;21.22;64.39;101109.93;212589;1299;140262;-85
2023/08/11 18:24:24;;;;;;;6.70;2.60;;;;;;;21.06;65.37;101118.94;213000;1298;137902;-86
2023/08/11 18:29:25;;;;;;;6.90;3.00;;;;;;;20.87;66.41;101123.30;212629;1296;141153;-85
2023/08/11 18:34:26;;;;;;;8.30;3.60;;;;;;;20.66;67.19;101129.36;213012;1298;137539;-85
2023/08/11 18:39:26;;;;;;;5.50;2.50;;;;;;;20.48;68.27;101125.56;212610;1298;140053;-86
2023/08/11 18:44:27;;;;;;;10.30;3.70;;;;;;;20.33;69.55;101129.36;213227;1298;138094;-84
2023/08/11 18:49:28;;;;;;;8.80;3.50;;;;;;;20.11;70.99;101132.27;212384;1298;139736;-85
2023/08/11 18:54:28;;;;;;;10.50;3.50;;;;;;;19.91;72.18;101139.29;213106;1293;138624;-85
2023/08/11 18:59:29;;;;;;;8.40;3.90;;;;;;;19.71;73.44;101144.23;212740;1298;140857;-86
2023/08/11 19:04:29;;;;;;;9.90;4.10;;;;;;;19.59;73.87;101146.31;213195;1296;137770;-86
2023/08/11 19:09:30;;;;;;;8.00;3.50;;;;;;;19.53;73.69;101149.35;212456;1295;140706;-86
2023/08/11 19:14:32;;;;;;;9.00;4.10;;;;;;;19.32;74.77;101146.77;213104;1299;138111;-85
2023/08/11 19:19:32;;;;;;;9.20;3.40;;;;;;;19.07;75.44;101146.42;212558;1293;141091;-85
2023/08/11 19:24:33;;;;;;;9.10;3.80;;;;;;;18.89;75.62;101145.35;213009;1298;139249;-86
2023/08/11 19:29:33;;;;;;;10.80;4.20;;;;;;;18.75;75.93;101151.96;212529;1294;140890;-85
2023/08/11 19:34:34;;;;;;;8.80;4.00;;;;;;;18.68;76.16;101146.94;213221;1295;96588;-85
2023/08/11 19:39:36;;;;;;;6.90;3.90;;;;;;;18.57;77.52;101146.41;212507;1300;140554;-86
2023/08/11 19:44:40;;;;;;;10.90;3.50;;;;;;;18.37;78.30;101148.44;213010;1298;138837;-85
2023/08/11 19:49:40;;;;;;;9.80;3.60;;;;;;;18.27;78.32;101150.50;212566;1295;140139;-85
2023/08/11 19:54:41;;;;;;;8.50;3.70;;;;;;;18.19;78.34;101148.58;212987;1293;138618;-86
2023/08/11 19:59:41;;;;;;;11.30;3.80;;;;;;;18.11;78.39;101148.25;212652;1294;141471;-85
2023/08/11 20:04:42;;;;;;;6.90;3.30;;;;;;;17.93;79.59;101144.41;213160;1294;100153;-87
2023/08/11 20:09:42;;;;;;;12.10;4.70;;;;;;;17.78;80.25;101145.15;212583;1297;141304;-87
2023/08/11 20:14:43;;;;;;;11.50;7.00;;;;;;;17.64;81.29;101138.09;212936;1294;138803;-87
2023/08/11 20:19:43;;;;;;;14.30;9.30;;;;;;;17.49;82.09;101137.15;212434;1298;141141;-86
2023/08/11 20:24:44;;;;;;;12.30;7.20;;;;;;;17.33;82.46;101143.65;212826;1299;140262;-87
2023/08/11 20:29:44;;;;;;;13.80;8.60;;;;;;;17.22;83.15;101142.02;212293;1297;140625;-87
2023/08/11 20:34:45;;;;;;;13.20;7.70;;;;;;;17.11;83.77;101139.38;213021;1296;96620;-87
2023/08/11 20:39:45;;;;;;;14.80;7.10;;;;;;;16.98;84.29;101136.25;212325;1297;139776;-87
2023/08/11 20:44:46;;;;;;;17.70;8.10;;;;;;;16.88;84.82;101130.31;213001;1293;139950;-87
2023/08/11 20:49:47;;;;;;;11.30;7.00;;;;;;;16.83;85.36;101132.01;212989;1297;143050;-86
2023/08/11 20:54:47;;;;;;;12.20;6.00;;;;;;;16.72;86.04;101127.34;213669;1294;140240;-86
2023/08/11 20:59:48;;;;;;;14.30;6.30;;;;;;;16.60;86.18;101122.63;213354;1294;141935;-87
2023/08/11 21:04:49;;;;;;;11.70;5.70;;;;;;;16.51;87.06;101125.19;213531;1298;96619;-86
2023/08/11 21:09:49;;;;;;;10.30;5.90;;;;;;;16.43;87.52;101119.88;212572;1296;141570;-86
2023/08/11 21:14:49;;;;;;;8.80;5.40;;;;;;;16.35;87.79;101119.77;213222;1293;139326;-87
2023/08/11 21:19:50;;;;;;;10.00;5.40;;;;;;;16.30;87.91;101112.08;212593;1294;139770;-87
2023/08/11 21:24:50;;;;;;;10.40;5.80;;;;;;;16.25;88.35;101107.65;213109;1293;138780;-87
2023/08/11 21:29:51;;;;;;;10.80;5.40;;;;;;;16.18;88.81;101108.77;212768;1298;141057;-87
2023/08/11 21:34:51;;;;;;;14.00;5.70;;;;;;;16.12;88.65;101109.58;213268;1298;96828;-86
2023/08/11 21:39:52;;;;;;;8.70;5.40;;;;;;;16.08;89.44;101111.95;212715;1296;140542;-87
2023/08/11 21:44:52;;;;;;;8.40;4.80;;;;;;;16.00;89.32;101113.14;213302;1294;138409;-87
2023/08/11 21:49:53;;;;;;;8.30;4.70;;;;;;;15.95;88.76;101106.31;212887;1294;140771;-86
2023/08/11 21:54:53;;;;;;;10.60;5.40;;;;;;;15.91;89.28;101108.86;213146;1294;254491;-86
2023/08/11 21:59:54;;;;;;;9.10;4.90;;;;;;;15.86;89.31;101109.88;212722;1293;141696;-87
2023/08/11 22:04:57;;;;;;;11.70;5.30;;;;;;;15.82;89.23;101116.77;213129;1296;96621;-86
2023/08/11 22:09:58;;;;;;;12.10;5.50;;;;;;;15.79;89.39;101123.85;212547;1297;140674;-85
2023/08/11 22:14:58;;;;;;;12.40;5.10;;;;;;;15.72;89.94;101123.34;213019;1299;141274;-86
2023/08/11 22:19:59;;;;;;;13.60;5.80;;;;;;;15.66;89.48;101123.02;212489;1294;140806;-86
2023/08/11 22:25:02;;;;;;;10.30;5.50;;;;;;;15.62;90.04;101122.07;212954;1293;140050;-83
2023/08/11 22:30:04;;;;;;;11.50;6.10;;;;;;;15.59;89.84;101126.27;212540;1296;142015;-82
2023/08/11 22:35:05;;;;;;;14.50;6.40;;;;;;;15.54;90.28;101123.23;213126;1297;112866;-83
2023/08/11 22:40:06;;;;;;;12.00;6.00;;;;;;;15.49;89.86;101124.10;212369;1294;141423;-82